sensor_id;sensor_type;location;lat;lon;timestamp;pressure;altitude;pressure_sealevel;temperature;humidity
61573;BME280;47465;43.094;12.434;2023-04-06T00:00:43;98813.13;;;3.22;69.99
61573;BME280;47465;43.094;12.434;2023-04-06T00:03:10;98807.84;;;3.13;70.22
61573;BME280;47465;43.094;12.434;2023-04-06T00:05:39;98790.28;;;3.07;70.13
61573;BME280;47465;43.094;12.434;2023-04-06T00:08:05;98786.75;;;2.99;70.48
61573;BME280;47465;43.094;12.434;2023-04-06T00:10:31;98786.78;;;3.00;70.33
61573;BME280;47465;43.094;12.434;2023-04-06T00:12:57;98785.84;;;2.92;70.74
61573;BME280;47465;43.094;12.434;2023-04-06T00:15:23;98789.41;;;3.02;69.97
61573;BME280;47465;43.094;12.434;2023-04-06T00:17:49;98780.63;;;2.98;69.78
61573;BME280;47465;43.094;12.434;2023-04-06T00:20:17;98800.81;;;3.07;69.62
61573;BME280;47465;43.094;12.434;2023-04-06T00:22:43;98805.22;;;3.13;69.32
61573;BME280;47465;43.094;12.434;2023-04-06T00:25:10;98775.38;;;2.94;69.75
61573;BME280;47465;43.094;12.434;2023-04-06T00:27:36;98797.22;;;2.93;69.97
61573;BME280;47465;43.094;12.434;2023-04-06T00:30:03;98777.09;;;2.90;69.48
61573;BME280;47465;43.094;12.434;2023-04-06T00:32:29;98810.47;;;3.08;69.45
61573;BME280;47465;43.094;12.434;2023-04-06T00:34:55;98769.22;;;2.87;69.15
61573;BME280;47465;43.094;12.434;2023-04-06T00:37:22;98791.97;;;2.93;68.96
61573;BME280;47465;43.094;12.434;2023-04-06T00:39:48;98798.09;;;2.82;69.64
61573;BME280;47465;43.094;12.434;2023-04-06T00:42:17;98813.00;;;2.90;69.24
61573;BME280;47465;43.094;12.434;2023-04-06T00:44:50;98794.56;;;2.80;68.94
61573;BME280;47465;43.094;12.434;2023-04-06T00:47:16;98778.78;;;2.73;68.10
61573;BME280;47465;43.094;12.434;2023-04-06T00:49:42;98810.38;;;2.93;67.97
61573;BME280;47465;43.094;12.434;2023-04-06T00:52:08;98789.31;;;2.76;68.03
61573;BME280;47465;43.094;12.434;2023-04-06T00:54:35;98791.09;;;2.83;67.18
61573;BME280;47465;43.094;12.434;2023-04-06T00:57:01;98797.22;;;2.90;66.55
61573;BME280;47465;43.094;12.434;2023-04-06T00:59:28;98812.13;;;2.92;66.78
61573;BME280;47465;43.094;12.434;2023-04-06T01:01:54;98809.47;;;2.91;67.05
61573;BME280;47465;43.094;12.434;2023-04-06T01:04:20;98813.88;;;2.87;66.09
61573;BME280;47465;43.094;12.434;2023-04-06T01:06:48;98798.94;;;2.81;66.23
61573;BME280;47465;43.094;12.434;2023-04-06T01:09:14;98775.22;;;2.64;65.63
61573;BME280;47465;43.094;12.434;2023-04-06T01:11:41;98811.25;;;2.96;64.62
61573;BME280;47465;43.094;12.434;2023-04-06T01:14:07;98803.41;;;2.98;63.69
61573;BME280;47465;43.094;12.434;2023-04-06T01:16:34;98770.06;;;2.83;62.77
61573;BME280;47465;43.094;12.434;2023-04-06T01:19:00;98779.72;;;2.90;62.35
61573;BME280;47465;43.094;12.434;2023-04-06T01:21:26;98792.00;;;2.96;61.93
61573;BME280;47465;43.094;12.434;2023-04-06T01:23:53;98794.63;;;2.99;61.55
61573;BME280;47465;43.094;12.434;2023-04-06T01:26:19;98803.44;;;3.08;61.31
61573;BME280;47465;43.094;12.434;2023-04-06T01:28:45;98805.16;;;3.03;61.24
61573;BME280;47465;43.094;12.434;2023-04-06T01:31:11;98798.16;;;3.02;61.24
61573;BME280;47465;43.094;12.434;2023-04-06T01:33:37;98797.31;;;3.06;61.04
61573;BME280;47465;43.094;12.434;2023-04-06T01:36:03;98799.91;;;3.00;61.34
61573;BME280;47465;43.094;12.434;2023-04-06T01:38:29;98772.69;;;2.86;60.27
61573;BME280;47465;43.094;12.434;2023-04-06T01:40:56;98790.25;;;2.96;59.90
61573;BME280;47465;43.094;12.434;2023-04-06T01:43:22;98791.13;;;2.98;59.69
61573;BME280;47465;43.094;12.434;2023-04-06T01:45:48;98803.41;;;3.02;59.98
61573;BME280;47465;43.094;12.434;2023-04-06T01:48:14;98791.09;;;2.84;60.61
61573;BME280;47465;43.094;12.434;2023-04-06T01:50:40;98803.34;;;2.90;60.68
61573;BME280;47465;43.094;12.434;2023-04-06T01:53:06;98783.19;;;2.78;60.26
61573;BME280;47465;43.094;12.434;2023-04-06T01:55:32;98819.19;;;2.99;60.66
61573;BME280;47465;43.094;12.434;2023-04-06T01:57:59;98810.41;;;2.96;60.71
61573;BME280;47465;43.094;12.434;2023-04-06T02:00:25;98812.13;;;2.94;60.77
61573;BME280;47465;43.094;12.434;2023-04-06T02:02:51;98805.13;;;2.90;60.86
61573;BME280;47465;43.094;12.434;2023-04-06T02:05:17;98807.78;;;2.96;60.18
61573;BME280;47465;43.094;12.434;2023-04-06T02:07:43;98797.22;;;2.93;59.92
61573;BME280;47465;43.094;12.434;2023-04-06T02:10:12;98805.16;;;3.00;59.77
61573;BME280;47465;43.094;12.434;2023-04-06T02:12:38;98804.28;;;3.00;59.79
61573;BME280;47465;43.094;12.434;2023-04-06T02:15:07;98802.50;;;2.91;60.95
61573;BME280;47465;43.094;12.434;2023-04-06T02:17:33;98816.50;;;2.95;60.49
61573;BME280;47465;43.094;12.434;2023-04-06T02:19:59;98795.44;;;2.79;60.46
61573;BME280;47465;43.094;12.434;2023-04-06T02:22:25;98787.50;;;2.68;61.23
61573;BME280;47465;43.094;12.434;2023-04-06T02:24:50;98818.13;;;2.68;62.32
61573;BME280;47465;43.094;12.434;2023-04-06T02:27:16;98824.31;;;2.76;61.88
61573;BME280;47465;43.094;12.434;2023-04-06T02:29:42;98813.78;;;2.72;61.93
61573;BME280;47465;43.094;12.434;2023-04-06T02:32:09;98798.88;;;2.67;62.02
61573;BME280;47465;43.094;12.434;2023-04-06T02:34:35;98829.56;;;2.75;62.74
61573;BME280;47465;43.094;12.434;2023-04-06T02:37:01;98835.66;;;2.69;62.95
61573;BME280;47465;43.094;12.434;2023-04-06T02:39:27;98826.09;;;2.83;62.16
61573;BME280;47465;43.094;12.434;2023-04-06T02:41:53;98813.91;;;3.05;60.72
61573;BME280;47465;43.094;12.434;2023-04-06T02:44:18;98807.81;;;3.11;59.61
61573;BME280;47465;43.094;12.434;2023-04-06T02:46:45;98825.41;;;3.34;59.61
61573;BME280;47465;43.094;12.434;2023-04-06T02:49:12;98824.53;;;3.38;59.75
61573;BME280;47465;43.094;12.434;2023-04-06T02:51:38;98807.00;;;3.27;59.36
61573;BME280;47465;43.094;12.434;2023-04-06T02:54:04;98821.03;;;3.28;59.83
61573;BME280;47465;43.094;12.434;2023-04-06T02:56:30;98807.84;;;3.16;60.42
61573;BME280;47465;43.094;12.434;2023-04-06T02:58:56;98814.81;;;3.07;60.78
61573;BME280;47465;43.094;12.434;2023-04-06T03:01:22;98801.59;;;2.91;61.15
61573;BME280;47465;43.094;12.434;2023-04-06T03:03:48;98799.81;;;2.83;61.51
61573;BME280;47465;43.094;12.434;2023-04-06T03:06:15;98808.59;;;2.87;61.42
61573;BME280;47465;43.094;12.434;2023-04-06T03:08:41;98819.16;;;2.96;61.34
61573;BME280;47465;43.094;12.434;2023-04-06T03:11:07;98823.50;;;2.94;61.79
61573;BME280;47465;43.094;12.434;2023-04-06T03:13:32;98793.69;;;2.78;62.01
61573;BME280;47465;43.094;12.434;2023-04-06T03:15:58;98822.63;;;2.89;61.84
61573;BME280;47465;43.094;12.434;2023-04-06T03:18:25;98806.84;;;2.80;62.40
61573;BME280;47465;43.094;12.434;2023-04-06T03:20:51;98810.34;;;2.85;62.00
61573;BME280;47465;43.094;12.434;2023-04-06T03:23:20;98811.16;;;2.70;62.16
61573;BME280;47465;43.094;12.434;2023-04-06T03:25:46;98799.69;;;2.54;63.36
61573;BME280;47465;43.094;12.434;2023-04-06T03:28:12;98807.44;;;2.33;64.67
61573;BME280;47465;43.094;12.434;2023-04-06T03:30:38;98818.69;;;2.16;66.22
61573;BME280;47465;43.094;12.434;2023-04-06T03:33:04;98825.69;;;2.16;65.71
61573;BME280;47465;43.094;12.434;2023-04-06T03:35:30;98822.34;;;2.37;64.70
61573;BME280;47465;43.094;12.434;2023-04-06T03:37:55;98806.50;;;2.21;65.47
61573;BME280;47465;43.094;12.434;2023-04-06T03:40:23;98837.91;;;2.17;66.74
61573;BME280;47465;43.094;12.434;2023-04-06T03:42:49;98836.88;;;1.92;67.67
61573;BME280;47465;43.094;12.434;2023-04-06T03:45:15;98838.56;;;1.85;68.28
61573;BME280;47465;43.094;12.434;2023-04-06T03:47:41;98834.28;;;1.96;67.43
61573;BME280;47465;43.094;12.434;2023-04-06T03:50:07;98799.31;;;1.99;66.42
61573;BME280;47465;43.094;12.434;2023-04-06T03:52:34;98819.50;;;2.04;66.42
61573;BME280;47465;43.094;12.434;2023-04-06T03:55:00;98807.88;;;1.76;68.57
61573;BME280;47465;43.094;12.434;2023-04-06T03:57:27;98830.53;;;1.68;68.98
61573;BME280;47465;43.094;12.434;2023-04-06T03:59:53;98818.25;;;1.64;68.29
61573;BME280;47465;43.094;12.434;2023-04-06T04:02:19;98823.56;;;1.70;69.32
61573;BME280;47465;43.094;12.434;2023-04-06T04:04:45;98843.84;;;1.91;68.94
61573;BME280;47465;43.094;12.434;2023-04-06T04:07:11;98823.56;;;1.73;69.27
61573;BME280;47465;43.094;12.434;2023-04-06T04:09:36;98813.75;;;1.49;70.25
61573;BME280;47465;43.094;12.434;2023-04-06T04:12:03;98851.41;;;1.57;70.61
61573;BME280;47465;43.094;12.434;2023-04-06T04:14:31;98863.66;;;1.60;71.09
61573;BME280;47465;43.094;12.434;2023-04-06T04:16:57;98850.38;;;1.44;71.12
61573;BME280;47465;43.094;12.434;2023-04-06T04:19:23;98861.84;;;1.53;70.95
61573;BME280;47465;43.094;12.434;2023-04-06T04:21:49;98859.09;;;1.42;71.80
61573;BME280;47465;43.094;12.434;2023-04-06T04:24:14;98827.41;;;1.17;73.14
61573;BME280;47465;43.094;12.434;2023-04-06T04:26:40;98852.00;;;1.30;72.46
61573;BME280;47465;43.094;12.434;2023-04-06T04:29:06;98837.09;;;1.28;71.87
61573;BME280;47465;43.094;12.434;2023-04-06T04:31:34;98860.22;;;1.66;71.00
61573;BME280;47465;43.094;12.434;2023-04-06T04:34:00;98836.66;;;1.70;69.61
61573;BME280;47465;43.094;12.434;2023-04-06T04:36:27;98852.47;;;1.79;69.88
61573;BME280;47465;43.094;12.434;2023-04-06T04:38:53;98837.41;;;1.55;70.88
61573;BME280;47465;43.094;12.434;2023-04-06T04:41:18;98831.06;;;1.36;71.12
61573;BME280;47465;43.094;12.434;2023-04-06T04:43:44;98835.94;;;1.02;73.68
61573;BME280;47465;43.094;12.434;2023-04-06T04:46:11;98849.81;;;0.94;73.81
61573;BME280;47465;43.094;12.434;2023-04-06T04:48:38;98873.44;;;0.98;74.50
61573;BME280;47465;43.094;12.434;2023-04-06T04:51:04;98859.19;;;0.78;74.84
61573;BME280;47465;43.094;12.434;2023-04-06T04:53:31;98840.25;;;0.96;73.18
61573;BME280;47465;43.094;12.434;2023-04-06T04:55:57;98852.22;;;0.80;75.36
61573;BME280;47465;43.094;12.434;2023-04-06T04:58:22;98850.00;;;1.09;73.84
61573;BME280;47465;43.094;12.434;2023-04-06T05:00:48;98847.53;;;2.13;68.35
61573;BME280;47465;43.094;12.434;2023-04-06T05:03:19;98847.66;;;2.30;67.94
61573;BME280;47465;43.094;12.434;2023-04-06T05:05:47;98842.28;;;2.16;68.67
61573;BME280;47465;43.094;12.434;2023-04-06T05:08:13;98856.28;;;2.14;69.09
61573;BME280;47465;43.094;12.434;2023-04-06T05:10:39;98848.38;;;2.12;68.87
61573;BME280;47465;43.094;12.434;2023-04-06T05:13:05;98843.34;;;2.37;66.92
61573;BME280;47465;43.094;12.434;2023-04-06T05:15:31;98850.44;;;2.58;66.96
61573;BME280;47465;43.094;12.434;2023-04-06T05:17:57;98845.22;;;2.56;66.79
61573;BME280;47465;43.094;12.434;2023-04-06T05:20:23;98863.59;;;2.59;67.65
61573;BME280;47465;43.094;12.434;2023-04-06T05:22:50;98830.13;;;2.24;68.62
61573;BME280;47465;43.094;12.434;2023-04-06T05:25:16;98870.50;;;2.43;68.32
61573;BME280;47465;43.094;12.434;2023-04-06T05:27:42;98851.03;;;2.11;70.27
61573;BME280;47465;43.094;12.434;2023-04-06T05:30:08;98850.09;;;2.07;71.28
61573;BME280;47465;43.094;12.434;2023-04-06T05:32:34;98852.63;;;1.96;72.19
61573;BME280;47465;43.094;12.434;2023-04-06T05:35:00;98850.81;;;1.88;72.81
61573;BME280;47465;43.094;12.434;2023-04-06T05:37:26;98879.84;;;2.06;72.84
61573;BME280;47465;43.094;12.434;2023-04-06T05:39:53;98872.09;;;2.21;71.89
61573;BME280;47465;43.094;12.434;2023-04-06T05:42:19;98844.94;;;2.18;71.61
61573;BME280;47465;43.094;12.434;2023-04-06T05:44:45;98860.78;;;2.32;71.93
61573;BME280;47465;43.094;12.434;2023-04-06T05:47:11;98859.03;;;2.34;72.99
61573;BME280;47465;43.094;12.434;2023-04-06T05:49:37;98853.84;;;2.37;72.96
61573;BME280;47465;43.094;12.434;2023-04-06T05:52:03;98862.72;;;2.57;70.03
61573;BME280;47465;43.094;12.434;2023-04-06T05:54:29;98864.75;;;3.06;67.61
61573;BME280;47465;43.094;12.434;2023-04-06T05:56:57;98854.25;;;3.14;68.29
61573;BME280;47465;43.094;12.434;2023-04-06T05:59:22;98858.66;;;3.27;68.17
61573;BME280;47465;43.094;12.434;2023-04-06T06:01:49;98858.72;;;3.36;66.76
61573;BME280;47465;43.094;12.434;2023-04-06T06:04:15;98871.09;;;3.71;65.56
61573;BME280;47465;43.094;12.434;2023-04-06T06:06:41;98889.53;;;4.02;63.50
61573;BME280;47465;43.094;12.434;2023-04-06T06:09:06;98878.13;;;4.14;62.31
61573;BME280;47465;43.094;12.434;2023-04-06T06:11:32;98893.94;;;4.35;62.16
61573;BME280;47465;43.094;12.434;2023-04-06T06:14:00;98880.75;;;4.46;60.90
61573;BME280;47465;43.094;12.434;2023-04-06T06:16:25;98889.53;;;4.57;61.11
61573;BME280;47465;43.094;12.434;2023-04-06T06:18:51;98886.88;;;4.76;60.68
61573;BME280;47465;43.094;12.434;2023-04-06T06:21:17;98879.84;;;4.81;60.95
61573;BME280;47465;43.094;12.434;2023-04-06T06:23:43;98871.91;;;4.90;60.28
61573;BME280;47465;43.094;12.434;2023-04-06T06:26:09;98861.34;;;5.05;59.82
61573;BME280;47465;43.094;12.434;2023-04-06T06:28:35;98861.28;;;5.21;60.31
61573;BME280;47465;43.094;12.434;2023-04-06T06:31:02;98881.34;;;5.46;57.93
61573;BME280;47465;43.094;12.434;2023-04-06T06:33:28;98881.34;;;5.55;57.28
61573;BME280;47465;43.094;12.434;2023-04-06T06:35:54;98870.72;;;5.65;57.90
61573;BME280;47465;43.094;12.434;2023-04-06T06:38:19;98887.31;;;5.87;56.11
61573;BME280;47465;43.094;12.434;2023-04-06T06:40:45;98880.28;;;5.84;55.93
61573;BME280;47465;43.094;12.434;2023-04-06T06:43:11;98861.75;;;5.92;54.33
61573;BME280;47465;43.094;12.434;2023-04-06T06:45:37;98902.91;;;6.27;54.91
61573;BME280;47465;43.094;12.434;2023-04-06T06:48:05;98881.78;;;6.22;55.17
61573;BME280;47465;43.094;12.434;2023-04-06T06:50:30;98880.84;;;6.31;52.98
61573;BME280;47465;43.094;12.434;2023-04-06T06:52:56;98893.00;;;6.55;53.15
61573;BME280;47465;43.094;12.434;2023-04-06T06:55:22;98887.66;;;6.60;52.63
61573;BME280;47465;43.094;12.434;2023-04-06T06:57:48;98899.19;;;6.48;53.14
61573;BME280;47465;43.094;12.434;2023-04-06T07:00:14;98849.47;;;5.86;53.96
61573;BME280;47465;43.094;12.434;2023-04-06T07:02:40;98860.72;;;6.19;54.61
61573;BME280;47465;43.094;12.434;2023-04-06T07:05:08;98890.22;;;6.67;53.70
61573;BME280;47465;43.094;12.434;2023-04-06T07:07:34;98868.16;;;6.73;52.99
61573;BME280;47465;43.094;12.434;2023-04-06T07:10:00;98862.97;;;6.64;52.61
61573;BME280;47465;43.094;12.434;2023-04-06T07:12:26;98867.19;;;6.82;53.02
61573;BME280;47465;43.094;12.434;2023-04-06T07:14:52;98873.09;;;7.05;51.88
61573;BME280;47465;43.094;12.434;2023-04-06T07:17:18;98877.38;;;7.17;51.62
61573;BME280;47465;43.094;12.434;2023-04-06T07:19:44;98884.25;;;7.32;50.94
61573;BME280;47465;43.094;12.434;2023-04-06T07:22:12;98894.63;;;7.47;50.62
61573;BME280;47465;43.094;12.434;2023-04-06T07:24:38;98875.44;;;7.30;50.08
61573;BME280;47465;43.094;12.434;2023-04-06T07:27:04;98874.59;;;7.28;50.86
61573;BME280;47465;43.094;12.434;2023-04-06T07:29:30;98892.22;;;7.29;51.23
61573;BME280;47465;43.094;12.434;2023-04-06T07:31:56;98873.78;;;7.21;51.08
61573;BME280;47465;43.094;12.434;2023-04-06T07:34:22;98876.25;;;7.35;50.69
61573;BME280;47465;43.094;12.434;2023-04-06T07:36:48;98867.31;;;7.45;50.07
61573;BME280;47465;43.094;12.434;2023-04-06T07:39:15;98889.56;;;7.97;49.64
61573;BME280;47465;43.094;12.434;2023-04-06T07:41:41;98887.06;;;7.86;50.78
61573;BME280;47465;43.094;12.434;2023-04-06T07:44:07;98862.38;;;7.82;48.83
61573;BME280;47465;43.094;12.434;2023-04-06T07:46:32;98877.81;;;8.15;49.24
61573;BME280;47465;43.094;12.434;2023-04-06T07:48:59;98865.97;;;7.78;49.26
61573;BME280;47465;43.094;12.434;2023-04-06T07:51:26;98890.19;;;8.13;50.04
61573;BME280;47465;43.094;12.434;2023-04-06T07:53:52;98876.00;;;8.18;49.20
61573;BME280;47465;43.094;12.434;2023-04-06T07:56:20;98876.44;;;8.47;47.62
61573;BME280;47465;43.094;12.434;2023-04-06T07:58:47;98887.25;;;8.31;49.39
61573;BME280;47465;43.094;12.434;2023-04-06T08:01:13;98897.91;;;8.28;48.31
61573;BME280;47465;43.094;12.434;2023-04-06T08:03:39;98895.00;;;7.85;50.16
61573;BME280;47465;43.094;12.434;2023-04-06T08:06:05;98867.16;;;8.18;48.36
61573;BME280;47465;43.094;12.434;2023-04-06T08:08:31;98875.31;;;8.04;49.01
61573;BME280;47465;43.094;12.434;2023-04-06T08:10:57;98885.66;;;8.19;49.34
61573;BME280;47465;43.094;12.434;2023-04-06T08:13:26;98860.38;;;8.56;48.66
61573;BME280;47465;43.094;12.434;2023-04-06T08:15:53;98847.19;;;9.01;48.06
61573;BME280;47465;43.094;12.434;2023-04-06T08:18:19;98853.09;;;8.69;47.19
61573;BME280;47465;43.094;12.434;2023-04-06T08:20:45;98879.94;;;8.50;48.42
61573;BME280;47465;43.094;12.434;2023-04-06T08:23:11;98866.84;;;8.38;48.31
61573;BME280;47465;43.094;12.434;2023-04-06T08:25:36;98875.13;;;8.72;48.09
61573;BME280;47465;43.094;12.434;2023-04-06T08:28:02;98898.25;;;9.12;47.45
61573;BME280;47465;43.094;12.434;2023-04-06T08:30:30;98854.09;;;8.61;47.50
61573;BME280;47465;43.094;12.434;2023-04-06T08:32:56;98868.91;;;8.73;48.21
61573;BME280;47465;43.094;12.434;2023-04-06T08:35:22;98880.00;;;9.39;47.17
61573;BME280;47465;43.094;12.434;2023-04-06T08:37:48;98874.19;;;9.65;46.23
61573;BME280;47465;43.094;12.434;2023-04-06T08:40:14;98865.38;;;9.19;47.03
61573;BME280;47465;43.094;12.434;2023-04-06T08:42:44;98892.91;;;9.15;47.34
61573;BME280;47465;43.094;12.434;2023-04-06T08:45:15;98889.72;;;8.95;48.15
61573;BME280;47465;43.094;12.434;2023-04-06T08:47:43;98890.38;;;9.51;46.55
61573;BME280;47465;43.094;12.434;2023-04-06T08:50:10;98889.09;;;9.71;47.00
61573;BME280;47465;43.094;12.434;2023-04-06T08:52:38;98878.81;;;9.96;46.01
61573;BME280;47465;43.094;12.434;2023-04-06T08:55:05;98879.16;;;9.80;44.95
61573;BME280;47465;43.094;12.434;2023-04-06T08:57:31;98868.69;;;10.12;44.65
61573;BME280;47465;43.094;12.434;2023-04-06T09:00:00;98871.84;;;10.29;43.47
61573;BME280;47465;43.094;12.434;2023-04-06T09:02:27;98879.06;;;10.22;44.44
61573;BME280;47465;43.094;12.434;2023-04-06T09:04:54;98862.75;;;9.61;44.77
61573;BME280;47465;43.094;12.434;2023-04-06T09:07:20;98880.53;;;10.37;43.77
61573;BME280;47465;43.094;12.434;2023-04-06T09:09:47;98860.44;;;10.60;44.43
61573;BME280;47465;43.094;12.434;2023-04-06T09:12:22;98885.38;;;10.90;42.65
61573;BME280;47465;43.094;12.434;2023-04-06T09:14:48;98873.13;;;10.84;41.78
61573;BME280;47465;43.094;12.434;2023-04-06T09:17:20;98875.81;;;10.83;41.81
61573;BME280;47465;43.094;12.434;2023-04-06T09:19:46;98879.03;;;10.96;41.17
61573;BME280;47465;43.094;12.434;2023-04-06T09:22:14;98878.81;;;10.69;40.20
61573;BME280;47465;43.094;12.434;2023-04-06T09:24:42;98861.13;;;10.68;41.22
61573;BME280;47465;43.094;12.434;2023-04-06T09:27:09;98877.97;;;11.01;41.87
61573;BME280;47465;43.094;12.434;2023-04-06T09:29:37;98856.13;;;10.88;41.25
61573;BME280;47465;43.094;12.434;2023-04-06T09:32:04;98878.50;;;10.08;43.93
61573;BME280;47465;43.094;12.434;2023-04-06T09:34:30;98882.91;;;10.48;41.95
61573;BME280;47465;43.094;12.434;2023-04-06T09:36:56;98850.22;;;10.77;41.65
61573;BME280;47465;43.094;12.434;2023-04-06T09:39:24;98852.03;;;10.42;43.50
61573;BME280;47465;43.094;12.434;2023-04-06T09:41:51;98858.91;;;10.85;42.11
61573;BME280;47465;43.094;12.434;2023-04-06T09:44:17;98866.00;;;11.18;40.58
61573;BME280;47465;43.094;12.434;2023-04-06T09:46:43;98867.22;;;11.37;41.12
61573;BME280;47465;43.094;12.434;2023-04-06T09:49:10;98851.38;;;11.33;40.72
61573;BME280;47465;43.094;12.434;2023-04-06T09:51:39;98868.19;;;11.64;39.87
61573;BME280;47465;43.094;12.434;2023-04-06T09:54:06;98851.09;;;11.42;40.51
61573;BME280;47465;43.094;12.434;2023-04-06T09:56:45;98866.91;;;11.48;40.41
61573;BME280;47465;43.094;12.434;2023-04-06T09:59:13;98850.94;;;11.48;40.23
61573;BME280;47465;43.094;12.434;2023-04-06T10:01:40;98852.03;;;11.70;40.14
61573;BME280;47465;43.094;12.434;2023-04-06T10:04:17;98870.22;;;11.56;41.72
61573;BME280;47465;43.094;12.434;2023-04-06T10:06:47;98847.63;;;11.69;40.02
61573;BME280;47465;43.094;12.434;2023-04-06T10:09:18;98864.56;;;11.97;39.54
61573;BME280;47465;43.094;12.434;2023-04-06T10:11:47;98855.34;;;12.08;39.62
61573;BME280;47465;43.094;12.434;2023-04-06T10:14:15;98858.34;;;12.26;39.61
61573;BME280;47465;43.094;12.434;2023-04-06T10:16:41;98851.00;;;12.32;38.39
61573;BME280;47465;43.094;12.434;2023-04-06T10:19:12;98848.50;;;12.00;39.32
61573;BME280;47465;43.094;12.434;2023-04-06T10:21:40;98840.19;;;11.81;39.37
61573;BME280;47465;43.094;12.434;2023-04-06T10:24:08;98858.72;;;12.13;39.35
61573;BME280;47465;43.094;12.434;2023-04-06T10:26:36;98856.72;;;12.20;41.11
61573;BME280;47465;43.094;12.434;2023-04-06T10:29:04;98833.66;;;11.61;41.85
61573;BME280;47465;43.094;12.434;2023-04-06T10:31:30;98850.66;;;11.87;40.12
61573;BME280;47465;43.094;12.434;2023-04-06T10:33:57;98851.25;;;11.97;40.13
61573;BME280;47465;43.094;12.434;2023-04-06T10:36:25;98837.69;;;11.75;39.83
61573;BME280;47465;43.094;12.434;2023-04-06T10:38:56;98822.56;;;11.75;38.92
61573;BME280;47465;43.094;12.434;2023-04-06T10:41:32;98826.22;;;11.72;40.85
61573;BME280;47465;43.094;12.434;2023-04-06T10:43:59;98828.25;;;11.94;41.67
61573;BME280;47465;43.094;12.434;2023-04-06T10:46:27;98852.84;;;12.30;39.33
61573;BME280;47465;43.094;12.434;2023-04-06T10:48:53;98842.75;;;12.40;38.24
61573;BME280;47465;43.094;12.434;2023-04-06T10:51:19;98851.34;;;12.22;40.34
61573;BME280;47465;43.094;12.434;2023-04-06T10:53:49;98835.31;;;11.36;39.65
61573;BME280;47465;43.094;12.434;2023-04-06T10:56:17;98831.78;;;11.65;41.81
61573;BME280;47465;43.094;12.434;2023-04-06T10:58:47;98839.69;;;11.98;40.16
61573;BME280;47465;43.094;12.434;2023-04-06T11:01:14;98831.00;;;11.61;41.20
61573;BME280;47465;43.094;12.434;2023-04-06T11:03:46;98845.59;;;12.07;38.86
61573;BME280;47465;43.094;12.434;2023-04-06T11:06:23;98832.06;;;12.13;38.06
61573;BME280;47465;43.094;12.434;2023-04-06T11:08:49;98835.16;;;12.28;38.57
61573;BME280;47465;43.094;12.434;2023-04-06T11:11:17;98848.69;;;12.22;39.90
61573;BME280;47465;43.094;12.434;2023-04-06T11:13:45;98854.66;;;12.30;38.60
61573;BME280;47465;43.094;12.434;2023-04-06T11:16:15;98824.00;;;11.88;38.84
61573;BME280;47465;43.094;12.434;2023-04-06T11:18:54;98845.88;;;11.98;39.79
61573;BME280;47465;43.094;12.434;2023-04-06T11:21:32;98841.38;;;12.00;37.92
61573;BME280;47465;43.094;12.434;2023-04-06T11:24:06;98816.03;;;12.15;39.45
61573;BME280;47465;43.094;12.434;2023-04-06T11:26:37;98802.34;;;11.69;39.79
61573;BME280;47465;43.094;12.434;2023-04-06T11:29:03;98816.03;;;12.15;39.66
61573;BME280;47465;43.094;12.434;2023-04-06T11:31:29;98814.22;;;12.42;38.44
61573;BME280;47465;43.094;12.434;2023-04-06T11:33:57;98816.53;;;12.53;37.27
61573;BME280;47465;43.094;12.434;2023-04-06T11:36:23;98829.41;;;12.40;38.08
61573;BME280;47465;43.094;12.434;2023-04-06T11:38:49;98798.13;;;12.45;37.90
61573;BME280;47465;43.094;12.434;2023-04-06T11:41:15;98811.22;;;12.78;36.71
61573;BME280;47465;43.094;12.434;2023-04-06T11:43:46;98799.53;;;12.82;37.26
61573;BME280;47465;43.094;12.434;2023-04-06T11:46:17;98815.97;;;12.95;38.33
61573;BME280;47465;43.094;12.434;2023-04-06T11:48:44;98808.31;;;13.09;37.31
61573;BME280;47465;43.094;12.434;2023-04-06T11:51:12;98803.22;;;12.78;37.55
61573;BME280;47465;43.094;12.434;2023-04-06T11:53:47;98798.13;;;12.70;36.91
61573;BME280;47465;43.094;12.434;2023-04-06T11:56:23;98801.91;;;12.90;37.81
61573;BME280;47465;43.094;12.434;2023-04-06T11:58:49;98775.97;;;12.93;37.62
61573;BME280;47465;43.094;12.434;2023-04-06T12:01:15;98784.63;;;12.75;37.39
61573;BME280;47465;43.094;12.434;2023-04-06T12:03:41;98784.16;;;12.89;37.45
61573;BME280;47465;43.094;12.434;2023-04-06T12:06:07;98773.75;;;12.56;36.27
61573;BME280;47465;43.094;12.434;2023-04-06T12:08:34;98789.75;;;12.81;37.68
61573;BME280;47465;43.094;12.434;2023-04-06T12:11:00;98793.88;;;12.90;37.35
61573;BME280;47465;43.094;12.434;2023-04-06T12:13:26;98763.19;;;12.78;37.26
61573;BME280;47465;43.094;12.434;2023-04-06T12:15:52;98772.97;;;13.03;36.50
61573;BME280;47465;43.094;12.434;2023-04-06T12:18:18;98753.22;;;13.07;37.14
61573;BME280;47465;43.094;12.434;2023-04-06T12:20:44;98783.97;;;13.42;37.36
61573;BME280;47465;43.094;12.434;2023-04-06T12:23:10;98746.91;;;13.56;36.03
61573;BME280;47465;43.094;12.434;2023-04-06T12:25:39;98757.16;;;13.67;35.29
61573;BME280;47465;43.094;12.434;2023-04-06T12:28:04;98758.13;;;13.88;35.64
61573;BME280;47465;43.094;12.434;2023-04-06T12:30:31;98747.50;;;14.07;35.56
61573;BME280;47465;43.094;12.434;2023-04-06T12:32:57;98744.69;;;14.32;34.75
61573;BME280;47465;43.094;12.434;2023-04-06T12:35:23;98731.91;;;14.39;35.34
61573;BME280;47465;43.094;12.434;2023-04-06T12:37:49;98719.66;;;14.55;34.50
61573;BME280;47465;43.094;12.434;2023-04-06T12:40:15;98747.63;;;13.84;34.54
61573;BME280;47465;43.094;12.434;2023-04-06T12:42:42;98737.50;;;12.50;35.73
61573;BME280;47465;43.094;12.434;2023-04-06T12:45:09;98732.59;;;12.63;36.90
61573;BME280;47465;43.094;12.434;2023-04-06T12:47:35;98742.63;;;12.57;36.05
61573;BME280;47465;43.094;12.434;2023-04-06T12:50:04;98725.16;;;12.73;36.55
61573;BME280;47465;43.094;12.434;2023-04-06T12:52:30;98752.59;;;13.24;36.56
61573;BME280;47465;43.094;12.434;2023-04-06T12:54:57;98729.00;;;13.37;36.17